Time;durP1;ratioP1;P1;durP2;ratioP2;P2;SDS_P1;SDS_P2;PMS_P1;PMS_P2;Temp;Humidity;BMP_temperature;BMP_pressure;BME280_temperature;BME280_humidity;BME280_pressure;Samples;Min_cycle;Max_cycle;Signal;HPM_P1;HPM_P2
2023/07/09 00:01:47;;;;;;;4.30;3.00;;;22.20;1.00;;;;;;4975956;28;20057;-72
2023/07/09 00:04:13;;;;;;;6.55;4.00;;;22.20;1.00;;;;;;4975913;28;20042;-73
2023/07/09 00:06:40;;;;;;;5.07;3.90;;;22.20;1.00;;;;;;4976184;28;20508;-74
2023/07/09 00:09:12;;;;;;;4.18;3.72;;;22.10;1.00;;;;;;4976259;28;20066;-73
2023/07/09 00:11:37;;;;;;;6.17;4.10;;;22.10;1.00;;;;;;4976173;28;20049;-72
2023/07/09 00:14:06;;;;;;;4.55;3.78;;;22.10;1.00;;;;;;4975445;28;20046;-71
2023/07/09 00:16:32;;;;;;;5.63;3.88;;;22.00;1.00;;;;;;4974227;28;20042;-71
2023/07/09 00:18:58;;;;;;;4.90;4.13;;;22.00;1.00;;;;;;4975376;28;20460;-72
2023/07/09 00:21:24;;;;;;;4.75;4.35;;;22.00;1.00;;;;;;4975175;28;20421;-74
2023/07/09 00:23:49;;;;;;;4.97;4.20;;;21.90;1.00;;;;;;4990471;28;20054;-73
2023/07/09 00:26:17;;;;;;;5.38;3.97;;;21.80;1.00;;;;;;4957977;28;20047;-72
2023/07/09 00:28:43;;;;;;;5.03;3.97;;;21.80;1.00;;;;;;4975449;28;20046;-71
2023/07/09 00:31:14;;;;;;;6.45;4.28;;;21.70;1.00;;;;;;4975399;28;20402;-74
2023/07/09 00:33:41;;;;;;;4.72;4.25;;;21.60;10.00;;;;;;4976244;28;20374;-73
2023/07/09 00:36:31;;;;;;;6.38;4.53;;;21.60;41.00;;;;;;4975457;28;20557;-72
2023/07/09 00:38:59;;;;;;;8.10;4.28;;;21.50;47.80;;;;;;4989971;28;20101;-74
2023/07/09 00:41:25;;;;;;;7.68;4.70;;;21.40;57.50;;;;;;4974763;28;20043;-74
2023/07/09 00:43:52;;;;;;;6.97;4.00;;;21.40;68.70;;;;;;4975572;28;20589;-73
2023/07/09 00:46:23;;;;;;;7.03;4.90;;;21.40;76.90;;;;;;4975619;28;20047;-72
2023/07/09 00:49:10;;;;;;;7.15;4.57;;;21.40;86.70;;;;;;4975187;28;20050;-72
2023/07/09 00:51:43;;;;;;;5.15;4.63;;;21.40;90.30;;;;;;4975026;28;20677;-73
2023/07/09 00:54:36;;;;;;;6.32;4.82;;;21.40;99.90;;;;;;4975482;28;20042;-75
2023/07/09 00:57:17;;;;;;;5.10;4.55;;;21.40;94.80;;;;;;4974033;28;20077;-73
2023/07/09 00:59:48;;;;;;;5.60;5.07;;;21.40;95.90;;;;;;4975310;28;20042;-74
2023/07/09 01:02:15;;;;;;;7.38;5.00;;;21.30;99.90;;;;;;4973890;28;20145;-73
2023/07/09 01:04:41;;;;;;;6.70;4.65;;;21.20;99.90;;;;;;4973793;28;20485;-74
2023/07/09 01:07:07;;;;;;;6.60;5.18;;;21.20;99.90;;;;;;4974140;28;20062;-71
2023/07/09 01:09:35;;;;;;;5.15;4.65;;;21.20;99.90;;;;;;4974891;28;20053;-73
2023/07/09 01:12:07;;;;;;;6.97;4.57;;;21.20;99.90;;;;;;4973184;28;20486;-71
2023/07/09 01:14:38;;;;;;;6.28;4.90;;;21.20;99.90;;;;;;4974034;28;20722;-73
2023/07/09 01:17:07;;;;;;;8.65;5.30;;;21.20;99.90;;;;;;4989605;28;20046;-73
2023/07/09 01:19:43;;;;;;;6.47;4.90;;;21.10;99.90;;;;;;4975196;28;20081;-71
2023/07/09 01:22:12;;;;;;;5.57;4.70;;;21.10;99.90;;;;;;4974840;28;20525;-72
2023/07/09 01:25:01;;;;;;;6.68;5.18;;;21.10;99.90;;;;;;4975461;28;20442;-73
2023/07/09 01:27:46;;;;;;;6.45;5.72;;;21.00;99.90;;;;;;4975503;28;20096;-72
2023/07/09 01:30:22;;;;;;;6.97;5.43;;;21.00;99.90;;;;;;4975040;28;20034;-72
2023/07/09 01:32:49;;;;;;;8.23;5.72;;;20.90;99.90;;;;;;4974877;28;20581;-73
2023/07/09 01:35:19;;;;;;;5.60;5.10;;;20.90;99.90;;;;;;4975181;28;20038;-70
2023/07/09 01:37:46;;;;;;;7.43;5.20;;;20.90;99.90;;;;;;4977314;28;20042;-71
2023/07/09 01:40:16;;;;;;;6.20;5.60;;;21.00;99.90;;;;;;4975660;28;20050;-71
2023/07/09 01:42:42;;;;;;;5.28;4.75;;;20.90;99.90;;;;;;4976336;28;20046;-73
2023/07/09 01:45:10;;;;;;;8.57;5.70;;;20.90;99.90;;;;;;4991857;28;20050;-73
2023/07/09 01:47:37;;;;;;;9.27;5.28;;;20.90;99.90;;;;;;4976291;28;20200;-71
2023/07/09 01:50:04;;;;;;;11.05;5.80;;;20.90;99.90;;;;;;4975067;28;20106;-71
2023/07/09 01:52:33;;;;;;;5.75;5.25;;;20.80;99.90;;;;;;4976222;28;20053;-73
2023/07/09 01:54:59;;;;;;;7.15;5.50;;;20.80;99.90;;;;;;4961459;28;20065;-72
2023/07/09 01:57:33;;;;;;;6.85;5.85;;;20.80;99.90;;;;;;4993959;28;20592;-72
2023/07/09 02:00:00;;;;;;;8.35;5.68;;;20.70;99.90;;;;;;4993045;28;20115;-73
2023/07/09 02:02:26;;;;;;;9.77;5.70;;;20.70;99.90;;;;;;4977329;28;20042;-72
2023/07/09 02:04:54;;;;;;;7.45;5.35;;;20.70;99.90;;;;;;4979269;28;20406;-73
2023/07/09 02:07:21;;;;;;;7.20;5.63;;;20.70;99.90;;;;;;4978615;28;20034;-72
2023/07/09 02:09:48;;;;;;;7.80;5.97;;;20.70;99.90;;;;;;4977590;28;20528;-72
2023/07/09 02:12:14;;;;;;;8.98;5.78;;;20.60;99.90;;;;;;4978433;28;20433;-72
2023/07/09 02:14:42;;;;;;;6.28;5.68;;;20.60;99.90;;;;;;4994284;28;20050;-74
2023/07/09 02:17:09;;;;;;;6.97;5.95;;;20.60;99.90;;;;;;4979471;28;20120;-72
2023/07/09 02:19:35;;;;;;;8.95;5.85;;;20.60;99.90;;;;;;4980682;28;20478;-72
2023/07/09 02:22:01;;;;;;;7.78;5.25;;;20.60;99.90;;;;;;4995244;28;20043;-72
2023/07/09 02:24:27;;;;;;;6.47;5.65;;;20.60;99.90;;;;;;4980567;28;20053;-74
2023/07/09 02:26:58;;;;;;;8.40;5.80;;;20.60;99.90;;;;;;4980226;28;20073;-72
2023/07/09 02:29:25;;;;;;;8.73;5.57;;;20.60;99.90;;;;;;4980584;28;20046;-73
2023/07/09 02:31:52;;;;;;;6.63;5.88;;;20.60;99.90;;;;;;4994968;28;20042;-72
2023/07/09 02:34:18;;;;;;;6.93;5.55;;;20.60;99.90;;;;;;4980672;28;20054;-72
2023/07/09 02:36:46;;;;;;;9.25;6.20;;;20.60;99.90;;;;;;4980200;28;20699;-72
2023/07/09 02:39:13;;;;;;;6.95;5.85;;;20.70;99.90;;;;;;4980353;28;20054;-72
2023/07/09 02:41:42;;;;;;;7.53;5.55;;;20.70;99.90;;;;;;4979217;28;20834;-72
2023/07/09 02:44:09;;;;;;;7.28;6.20;;;20.70;99.90;;;;;;4980398;28;20038;-73
2023/07/09 02:46:35;;;;;;;7.53;5.88;;;20.70;99.90;;;;;;4979617;28;20116;-73
2023/07/09 02:49:04;;;;;;;6.70;6.00;;;20.70;99.90;;;;;;4980887;28;20142;-73
2023/07/09 02:51:29;;;;;;;7.22;6.05;;;20.60;99.90;;;;;;4980093;28;20112;-72
2023/07/09 02:53:57;;;;;;;8.05;5.93;;;20.60;99.90;;;;;;4978649;28;20046;-72
2023/07/09 02:56:23;;;;;;;8.05;6.50;;;20.60;99.90;;;;;;4978801;28;20101;-74
2023/07/09 02:58:50;;;;;;;7.43;5.93;;;20.60;99.90;;;;;;4995146;28;20046;-74
2023/07/09 03:01:16;;;;;;;8.95;6.15;;;20.60;99.90;;;;;;4979282;28;20051;-72
2023/07/09 03:03:42;;;;;;;8.98;6.10;;;20.50;99.90;;;;;;4978544;28;20124;-73
2023/07/09 03:06:09;;;;;;;10.02;6.65;;;20.50;99.90;;;;;;4979844;28;20445;-71
2023/07/09 03:08:35;;;;;;;9.70;6.60;;;20.40;99.90;;;;;;4977988;28;20046;-73
2023/07/09 03:11:12;;;;;;;9.40;6.45;;;20.40;99.90;;;;;;4976781;28;20065;-72
2023/07/09 03:13:38;;;;;;;7.50;6.63;;;20.40;99.90;;;;;;4978366;28;20053;-72
2023/07/09 03:16:04;;;;;;;7.95;6.43;;;20.30;99.90;;;;;;4993635;28;20050;-73
2023/07/09 03:18:31;;;;;;;7.22;6.50;;;20.30;99.90;;;;;;4994013;28;20070;-73
2023/07/09 03:20:56;;;;;;;11.05;6.57;;;20.20;99.90;;;;;;4978249;28;20107;-73
2023/07/09 03:23:22;;;;;;;9.02;6.88;;;20.20;99.90;;;;;;4976498;28;20370;-72
2023/07/09 03:25:48;;;;;;;8.68;6.82;;;20.20;99.90;;;;;;4976490;28;20050;-74
2023/07/09 03:28:14;;;;;;;8.70;6.68;;;20.20;99.90;;;;;;4977695;28;20053;-72
2023/07/09 03:30:44;;;;;;;7.22;6.53;;;20.20;99.90;;;;;;4978209;28;20046;-72
2023/07/09 03:33:11;;;;;;;6.90;6.18;;;20.20;99.90;;;;;;4976658;28;20121;-72
2023/07/09 03:35:38;;;;;;;8.65;7.15;;;20.10;99.90;;;;;;4959856;28;20687;-72
2023/07/09 03:38:05;;;;;;;7.45;6.72;;;20.10;99.90;;;;;;4977758;28;20369;-72
2023/07/09 03:40:32;;;;;;;9.48;7.60;;;20.10;99.90;;;;;;4976382;28;20050;-72
2023/07/09 03:42:58;;;;;;;10.38;7.30;;;20.10;99.90;;;;;;4975740;28;20044;-72
2023/07/09 03:45:24;;;;;;;7.93;6.85;;;20.10;99.90;;;;;;4989851;28;20371;-72
2023/07/09 03:47:49;;;;;;;11.02;6.95;;;20.10;99.90;;;;;;4974095;28;20052;-71
2023/07/09 03:50:15;;;;;;;8.65;7.30;;;20.10;99.90;;;;;;4972409;28;20038;-73
2023/07/09 03:52:41;;;;;;;12.02;6.95;;;20.10;99.90;;;;;;4973583;28;20132;-75
2023/07/09 03:55:08;;;;;;;7.15;6.40;;;20.10;99.90;;;;;;4974246;28;20129;-72
2023/07/09 03:57:34;;;;;;;9.07;6.60;;;20.10;99.90;;;;;;4990786;28;20057;-72
2023/07/09 04:00:01;;;;;;;8.23;6.18;;;20.20;99.90;;;;;;4990907;28;20038;-72
2023/07/09 04:02:26;;;;;;;8.88;6.38;;;20.20;99.90;;;;;;4972985;28;20058;-72
2023/07/09 04:04:52;;;;;;;11.32;6.45;;;20.30;99.90;;;;;;4973350;28;20492;-73
2023/07/09 04:07:18;;;;;;;7.68;6.18;;;20.40;99.90;;;;;;4972373;28;20046;-73
2023/07/09 04:09:43;;;;;;;10.65;6.00;;;20.40;93.60;;;;;;4971832;28;20538;-72
2023/07/09 04:12:10;;;;;;;7.43;6.03;;;20.40;82.70;;;;;;4988161;28;20034;-73
2023/07/09 04:14:35;;;;;;;7.60;6.20;;;20.50;66.00;;;;;;4971825;28;20046;-72
2023/07/09 04:17:01;;;;;;;6.93;5.68;;;20.50;52.20;;;;;;4972298;28;20062;-72
2023/07/09 04:19:27;;;;;;;9.13;5.97;;;20.50;31.00;;;;;;4972688;28;20557;-72
2023/07/09 04:21:54;;;;;;;6.88;5.95;;;20.60;21.70;;;;;;4987526;28;20290;-72
2023/07/09 04:24:19;;;;;;;16.50;6.40;;;20.60;5.90;;;;;;4971755;28;20046;-73
2023/07/09 04:26:46;;;;;;;8.30;5.90;;;20.60;1.00;;;;;;4973350;28;21065;-74
2023/07/09 04:29:12;;;;;;;6.82;6.13;;;20.60;1.00;;;;;;4973354;28;20668;-73
2023/07/09 04:31:38;;;;;;;7.05;6.18;;;20.70;1.00;;;;;;4971554;28;20108;-72
2023/07/09 04:34:04;;;;;;;9.23;6.32;;;20.70;1.00;;;;;;4987620;28;20042;-72
2023/07/09 04:36:31;;;;;;;6.88;5.65;;;20.70;1.00;;;;;;4972647;28;20132;-73
2023/07/09 04:38:57;;;;;;;13.87;6.20;;;20.80;1.00;;;;;;4927138;28;1283776;-72
2023/07/09 04:41:22;;;;;;;8.13;6.07;;;20.80;1.00;;;;;;4988323;28;20426;-74
2023/07/09 04:43:48;;;;;;;7.88;5.80;;;20.90;1.00;;;;;;4988958;28;20046;-72
2023/07/09 04:46:14;;;;;;;7.10;5.95;;;20.90;1.00;;;;;;4973294;28;20053;-75
2023/07/09 04:48:40;;;;;;;8.57;5.72;;;21.00;1.00;;;;;;4973499;28;20034;-72
2023/07/09 04:51:06;;;;;;;6.50;5.55;;;21.00;1.00;;;;;;4973554;28;20047;-72
2023/07/09 04:53:31;;;;;;;9.13;5.68;;;21.10;1.00;;;;;;4988270;28;20177;-72
2023/07/09 04:55:57;;;;;;;10.18;6.00;;;21.20;1.00;;;;;;4987889;28;20633;-71
2023/07/09 04:58:23;;;;;;;8.10;6.38;;;21.20;1.00;;;;;;4988774;28;20030;-73
2023/07/09 05:00:50;;;;;;;8.55;6.07;;;21.30;1.00;;;;;;4971918;28;20141;-72
2023/07/09 05:03:19;;;;;;;9.00;5.88;;;21.30;1.00;;;;;;4971636;28;20050;-74
2023/07/09 05:05:46;;;;;;;9.07;6.63;;;21.40;1.00;;;;;;4973005;28;20108;-72
2023/07/09 05:08:16;;;;;;;11.25;6.43;;;21.40;1.00;;;;;;4987972;28;20270;-74
2023/07/09 05:10:43;;;;;;;7.93;6.55;;;21.50;99.90;;;;;;4973479;28;20912;-74
2023/07/09 05:13:09;;;;;;;8.90;6.47;;;21.60;99.90;;;;;;4971989;28;20616;-72
2023/07/09 05:15:35;;;;;;;10.00;6.75;;;21.60;99.90;;;;;;4973374;28;20042;-73
2023/07/09 05:18:01;;;;;;;6.40;5.78;;;21.70;99.90;;;;;;4987404;28;20050;-75
2023/07/09 05:20:26;;;;;;;8.45;6.32;;;21.80;99.90;;;;;;4973235;28;20061;-73
2023/07/09 05:22:52;;;;;;;8.95;6.50;;;21.90;99.90;;;;;;4955857;28;20457;-73
2023/07/09 05:25:18;;;;;;;7.40;6.70;;;22.00;99.90;;;;;;4973699;28;20522;-72
2023/07/09 05:27:44;;;;;;;8.40;6.03;;;22.10;99.90;;;;;;4971581;28;20753;-73
2023/07/09 05:30:10;;;;;;;8.30;6.15;;;22.20;99.90;;;;;;4988373;28;20513;-72
2023/07/09 05:32:37;;;;;;;7.35;6.18;;;22.20;99.90;;;;;;4973154;28;20047;-73
2023/07/09 05:35:03;;;;;;;10.50;6.10;;;22.40;99.90;;;;;;4973228;28;20038;-72
2023/07/09 05:37:29;;;;;;;7.68;6.20;;;22.60;99.90;;;;;;4988077;28;20154;-74
2023/07/09 05:39:55;;;;;;;8.30;5.68;;;22.80;99.90;;;;;;4988649;28;20050;-74
2023/07/09 05:42:21;;;;;;;5.95;5.32;;;22.90;99.90;;;;;;4974128;28;20042;-72
2023/07/09 05:44:47;;;;;;;7.80;5.13;;;23.10;99.90;;;;;;4990595;28;20064;-71
2023/07/09 05:47:13;;;;;;;9.10;5.80;;;23.30;99.90;;;;;;4974468;28;20607;-73
2023/07/09 05:49:39;;;;;;;9.27;5.78;;;23.50;99.90;;;;;;4974404;28;20904;-73
2023/07/09 05:52:05;;;;;;;6.38;5.50;;;23.60;99.90;;;;;;4975430;28;20046;-73
2023/07/09 05:54:31;;;;;;;9.70;5.88;;;23.70;99.90;;;;;;4958313;28;20533;-73
2023/07/09 05:56:57;;;;;;;10.02;6.03;;;23.90;99.90;;;;;;4920515;28;20062;-72
2023/07/09 05:59:23;;;;;;;6.70;5.68;;;24.10;99.90;;;;;;4973033;28;20050;-73
2023/07/09 06:01:48;;;;;;;8.27;6.10;;;24.30;99.90;;;;;;4971497;28;20052;-72
2023/07/09 06:04:14;;;;;;;8.35;5.50;;;24.50;99.90;;;;;;4971688;28;20296;-72
2023/07/09 06:06:41;;;;;;;6.57;5.60;;;24.60;99.90;;;;;;4972370;28;20420;-72
2023/07/09 06:09:08;;;;;;;8.63;5.80;;;24.70;99.90;;;;;;4974118;28;20062;-71
2023/07/09 06:11:34;;;;;;;6.40;5.50;;;24.80;99.90;;;;;;4974239;28;20521;-74
2023/07/09 06:14:00;;;;;;;7.68;5.03;;;24.90;99.90;;;;;;4972260;28;20049;-73
2023/07/09 06:16:27;;;;;;;6.57;5.43;;;25.00;99.90;;;;;;4974812;28;20047;-74
2023/07/09 06:18:53;;;;;;;6.78;5.43;;;25.10;99.90;;;;;;4975980;28;20038;-73
2023/07/09 06:21:19;;;;;;;6.43;5.30;;;25.20;99.90;;;;;;4977877;28;20769;-74
2023/07/09 06:23:46;;;;;;;7.18;4.90;;;25.10;99.90;;;;;;4976151;28;20044;-73
2023/07/09 06:26:12;;;;;;;6.05;4.68;;;25.20;99.90;;;;;;4990960;28;20094;-73
2023/07/09 06:28:38;;;;;;;8.15;5.10;;;25.30;99.90;;;;;;4975327;28;20598;-72
2023/07/09 06:31:04;;;;;;;7.43;5.05;;;25.30;99.90;;;;;;4974118;28;20050;-74
2023/07/09 06:33:29;;;;;;;7.13;5.13;;;25.50;99.90;;;;;;4973377;28;20047;-73
2023/07/09 06:36:00;;;;;;;5.88;4.78;;;25.50;99.90;;;;;;4974660;28;20414;-75
2023/07/09 06:38:28;;;;;;;7.55;5.22;;;25.60;99.90;;;;;;4974489;28;20049;-74
2023/07/09 06:40:54;;;;;;;6.15;4.60;;;25.60;99.90;;;;;;4977884;28;20057;-73
2023/07/09 06:43:20;;;;;;;5.72;5.13;;;25.60;99.90;;;;;;4976168;28;20210;-72
2023/07/09 06:45:56;;;;;;;6.60;5.07;;;25.60;99.90;;;;;;4976582;28;20513;-74
2023/07/09 06:48:24;;;;;;;7.10;4.95;;;25.50;99.90;;;;;;4993448;28;20390;-74
2023/07/09 06:50:50;;;;;;;7.03;4.70;;;25.60;99.90;;;;;;4979358;28;20042;-73
2023/07/09 06:53:16;;;;;;;8.60;4.85;;;25.60;99.90;;;;;;4994326;28;20125;-74
2023/07/09 06:55:41;;;;;;;5.45;4.95;;;25.70;99.90;;;;;;4977936;28;20133;-72
2023/07/09 06:58:08;;;;;;;6.32;4.90;;;25.70;99.90;;;;;;4979168;28;20053;-72
2023/07/09 07:00:35;;;;;;;6.32;5.20;;;25.80;99.90;;;;;;4979763;28;20092;-73
2023/07/09 07:03:02;;;;;;;5.97;5.30;;;25.90;99.90;;;;;;4979592;28;20049;-73
2023/07/09 07:05:27;;;;;;;6.40;5.60;;;26.00;99.90;;;;;;4978511;28;20134;-76
2023/07/09 07:07:53;;;;;;;6.35;5.28;;;26.10;99.90;;;;;;4978128;28;20133;-74
2023/07/09 07:10:19;;;;;;;8.05;5.55;;;26.20;99.90;;;;;;4992283;28;20054;-75
2023/07/09 07:12:48;;;;;;;8.27;5.60;;;26.30;99.90;;;;;;4976379;28;20116;-73
2023/07/09 07:15:16;;;;;;;8.65;5.90;;;26.60;99.90;;;;;;4976796;28;20181;-74
2023/07/09 07:17:43;;;;;;;6.72;5.00;;;26.80;99.90;;;;;;4978463;28;20145;-73
2023/07/09 07:20:10;;;;;;;6.22;5.43;;;26.70;99.90;;;;;;4978311;28;20038;-72
2023/07/09 07:22:37;;;;;;;8.00;5.63;;;26.80;99.90;;;;;;4976491;28;20042;-72
2023/07/09 07:25:04;;;;;;;6.63;5.40;;;26.80;99.90;;;;;;4974889;28;20430;-73
2023/07/09 07:27:30;;;;;;;6.40;4.97;;;26.80;99.90;;;;;;4975487;28;20048;-74
2023/07/09 07:29:57;;;;;;;6.60;5.53;;;26.80;99.90;;;;;;4974208;28;20082;-75
2023/07/09 07:32:23;;;;;;;6.97;5.55;;;26.80;99.90;;;;;;4975973;28;20382;-74
2023/07/09 07:34:49;;;;;;;7.30;5.72;;;26.90;99.90;;;;;;4974457;28;20160;-75
2023/07/09 07:37:19;;;;;;;10.57;5.93;;;27.00;99.90;;;;;;4974099;28;20146;-73
2023/07/09 07:39:45;;;;;;;7.40;5.30;;;27.20;99.90;;;;;;4990196;28;20108;-74
2023/07/09 07:42:13;;;;;;;8.75;5.53;;;27.30;99.90;;;;;;4975476;28;20145;-74
2023/07/09 07:44:38;;;;;;;6.40;5.15;;;27.40;99.90;;;;;;4975141;28;20046;-73
2023/07/09 07:47:08;;;;;;;9.05;5.40;;;27.70;99.90;;;;;;4975361;28;20096;-74
2023/07/09 07:49:34;;;;;;;9.15;5.40;;;28.00;99.90;;;;;;4974269;28;20644;-73
2023/07/09 07:52:03;;;;;;;6.70;5.07;;;28.30;99.90;;;;;;4974834;28;20047;-74
2023/07/09 07:54:31;;;;;;;5.13;4.63;;;28.50;99.90;;;;;;4989624;28;20543;-74
2023/07/09 07:56:57;;;;;;;7.03;4.85;;;28.60;99.90;;;;;;4975156;28;20042;-72
2023/07/09 07:59:23;;;;;;;7.40;5.03;;;28.70;99.90;;;;;;4973915;28;20077;-74
2023/07/09 08:01:49;;;;;;;7.55;4.82;;;29.10;99.90;;;;;;4975727;28;20043;-75
2023/07/09 08:04:15;;;;;;;9.57;5.30;;;29.50;98.70;;;;;;4974541;28;20477;-74
2023/07/09 08:06:41;;;;;;;4.82;4.30;;;29.70;92.90;;;;;;4974809;28;20089;-74
2023/07/09 08:09:07;;;;;;;5.03;4.25;;;29.90;96.80;;;;;;4975106;28;20065;-74
2023/07/09 08:11:33;;;;;;;8.30;4.80;;;29.80;91.00;;;;;;4974228;28;20038;-75
2023/07/09 08:13:59;;;;;;;5.38;4.68;;;29.80;58.60;;;;;;4990101;28;20526;-75
2023/07/09 08:16:25;;;;;;;6.68;4.53;;;29.80;63.40;;;;;;4974787;28;20046;-75
2023/07/09 08:18:51;;;;;;;9.18;4.88;;;29.90;62.90;;;;;;4974685;28;20052;-75
2023/07/09 08:21:17;;;;;;;6.72;4.95;;;29.80;61.30;;;;;;4974110;28;20050;-74
2023/07/09 08:23:44;;;;;;;5.00;4.50;;;29.60;76.70;;;;;;4957289;28;20050;-73
2023/07/09 08:26:10;;;;;;;6.88;4.90;;;29.60;81.90;;;;;;4974772;28;20176;-74
2023/07/09 08:28:37;;;;;;;7.07;5.15;;;29.50;96.40;;;;;;4974838;28;20223;-74
2023/07/09 08:31:04;;;;;;;7.38;5.28;;;29.80;87.20;;;;;;4974612;28;20050;-74
2023/07/09 08:33:30;;;;;;;7.47;4.93;;;30.20;73.00;;;;;;4989723;28;20518;-75
2023/07/09 08:35:56;;;;;;;8.02;5.40;;;30.50;60.90;;;;;;4957458;28;20430;-74
2023/07/09 08:38:23;;;;;;;5.70;4.97;;;30.50;54.20;;;;;;4974954;28;20057;-75
2023/07/09 08:40:59;;;;;;;7.55;5.30;;;30.50;56.50;;;;;;4975564;28;20081;-73
2023/07/09 08:43:54;;;;;;;6.43;4.95;;;30.70;41.60;;;;;;4976017;28;20049;-73
2023/07/09 08:46:28;;;;;;;7.30;5.05;;;30.80;32.50;;;;;;4973355;28;20046;-74
2023/07/09 08:48:56;;;;;;;7.45;4.80;;;31.30;25.30;;;;;;4974891;28;20321;-72
2023/07/09 08:51:31;;;;;;;5.25;4.53;;;31.50;11.70;;;;;;4974668;28;20920;-76
2023/07/09 08:53:59;;;;;;;8.15;4.38;;;31.20;4.00;;;;;;4972968;28;20042;-73
2023/07/09 08:56:26;;;;;;;6.90;4.57;;;31.10;1.00;;;;;;4973841;28;20132;-73
2023/07/09 08:58:55;;;;;;;8.25;4.32;;;31.10;1.00;;;;;;4974204;28;20038;-73
2023/07/09 09:01:30;;;;;;;8.60;4.05;;;31.30;10.30;;;;;;4972580;28;20050;-74
2023/07/09 09:04:15;;;;;;;7.78;4.88;;;31.40;2.60;;;;;;4975255;28;20042;-76
2023/07/09 09:06:47;;;;;;;6.18;4.63;;;31.60;1.00;;;;;;4992953;28;20507;-74
2023/07/09 09:09:22;;;;;;;;;;;31.50;1.00;;;;;;4996726;28;20133;-74
2023/07/09 09:12:17;;;;;;;6.22;4.75;;;31.70;1.00;;;;;;4982451;28;19924;-75
2023/07/09 09:14:56;;;;;;;6.28;4.57;;;31.80;1.00;;;;;;4997619;28;20264;-75
2023/07/09 09:17:29;;;;;;;5.80;4.53;;;32.10;1.00;;;;;;4981722;28;20096;-75
2023/07/09 09:20:03;;;;;;;6.03;4.30;;;32.10;1.00;;;;;;4977088;28;20049;-73
2023/07/09 09:22:55;;;;;;;6.60;4.28;;;32.10;1.00;;;;;;4975296;28;20562;-74
2023/07/09 09:25:31;;;;;;;8.68;4.30;;;31.80;1.00;;;;;;4974681;28;20050;-73
2023/07/09 09:28:00;;;;;;;8.23;4.38;;;32.20;1.00;;;;;;4973551;28;20056;-73
2023/07/09 09:30:27;;;;;;;8.02;4.57;;;32.60;1.00;;;;;;4973695;28;20050;-74
2023/07/09 09:32:55;;;;;;;6.10;4.40;;;32.90;1.00;;;;;;4974232;28;20671;-74
2023/07/09 09:35:33;;;;;;;4.38;3.97;;;33.00;1.00;;;;;;4973380;28;20501;-73
2023/07/09 09:37:59;;;;;;;5.93;4.40;;;33.20;1.00;;;;;;4973734;28;20706;-75
2023/07/09 09:40:27;;;;;;;5.43;4.30;;;33.20;1.00;;;;;;4974264;28;20760;-74
2023/07/09 09:42:56;;;;;;;9.77;4.47;;;33.10;1.00;;;;;;4990493;28;20129;-76
2023/07/09 09:45:27;;;;;;;6.88;5.35;;;33.20;1.00;;;;;;4974749;28;20454;-73
2023/07/09 09:47:57;;;;;;;10.10;5.40;;;32.60;1.00;;;;;;4974664;28;20473;-75
2023/07/09 09:50:26;;;;;;;7.28;5.50;;;32.60;16.20;;;;;;4989262;28;20577;-74
2023/07/09 09:52:51;;;;;;;6.65;5.10;;;32.60;41.60;;;;;;4974206;28;20042;-74
2023/07/09 09:55:24;;;;;;;10.10;5.00;;;32.70;48.10;;;;;;4989922;28;20047;-76
2023/07/09 09:57:54;;;;;;;6.38;4.97;;;33.00;27.40;;;;;;4973914;28;20057;-74
2023/07/09 10:00:24;;;;;;;6.13;5.13;;;33.20;16.40;;;;;;4974810;28;20044;-74
2023/07/09 10:02:56;;;;;;;7.35;6.38;;;33.40;7.20;;;;;;4973678;28;20046;-72
2023/07/09 10:05:31;;;;;;;7.57;4.90;;;33.50;1.00;;;;;;4974050;28;20145;-75
2023/07/09 10:08:25;;;;;;;6.35;4.03;;;33.30;1.00;;;;;;4975484;28;20069;-74
2023/07/09 10:10:53;;;;;;;8.85;4.60;;;33.40;1.00;;;;;;4976081;28;20031;-73
2023/07/09 10:13:34;;;;;;;9.18;4.63;;;33.20;1.00;;;;;;4976118;28;20045;-74
2023/07/09 10:16:25;;;;;;;8.00;4.45;;;33.50;1.00;;;;;;4980477;28;20038;-75
2023/07/09 10:19:15;;;;;;;5.83;4.97;;;33.90;1.00;;;;;;4979934;28;20042;-74
2023/07/09 10:22:08;;;;;;;7.20;4.80;;;34.00;1.00;;;;;;4981368;28;20129;-72
2023/07/09 10:24:55;;;;;;;6.90;5.28;;;34.10;1.00;;;;;;4983602;28;20517;-72
2023/07/09 10:27:30;;;;;;;9.25;5.10;;;34.20;1.00;;;;;;4983071;28;20046;-73
2023/07/09 10:30:35;;;;;;;6.97;4.65;;;34.30;1.00;;;;;;4982570;28;20541;-73
2023/07/09 10:33:13;;;;;;;7.93;4.25;;;34.30;1.00;;;;;;4979703;28;20050;-75
2023/07/09 10:36:02;;;;;;;5.68;4.45;;;34.40;1.00;;;;;;4978564;28;20046;-74
2023/07/09 10:38:42;;;;;;;7.88;3.90;;;34.40;1.00;;;;;;4978032;28;20049;-73
2023/07/09 10:41:12;;;;;;;8.93;4.78;;;34.40;1.00;;;;;;4976783;28;20081;-74
2023/07/09 10:43:59;;;;;;;7.25;4.75;;;34.10;1.00;;;;;;4959821;28;20700;-75
2023/07/09 10:46:32;;;;;;;7.65;4.75;;;34.40;1.00;;;;;;4992569;28;20042;-73
2023/07/09 10:49:02;;;;;;;7.50;4.57;;;34.50;1.00;;;;;;4978023;28;20042;-74
2023/07/09 10:51:41;;;;;;;7.03;4.68;;;34.90;1.00;;;;;;4979273;28;20109;-75
2023/07/09 10:54:17;;;;;;;8.50;5.90;;;34.80;1.00;;;;;;4980997;28;20645;-74
2023/07/09 10:56:47;;;;;;;6.80;5.80;;;34.80;1.00;;;;;;4982268;28;20517;-72
2023/07/09 10:59:21;;;;;;;9.85;5.80;;;35.00;1.00;;;;;;4981750;28;20154;-73
2023/07/09 11:01:55;;;;;;;6.43;5.70;;;35.30;1.00;;;;;;4982300;28;20042;-76
2023/07/09 11:04:37;;;;;;;6.75;6.05;;;35.30;1.00;;;;;;4981463;28;20378;-74
2023/07/09 11:07:07;;;;;;;6.38;5.18;;;35.10;1.00;;;;;;4978645;28;20520;-74
2023/07/09 11:09:42;;;;;;;6.45;5.07;;;34.90;1.00;;;;;;4979337;28;20129;-72
2023/07/09 11:12:17;;;;;;;7.40;6.30;;;34.80;1.00;;;;;;4994500;28;20051;-74
2023/07/09 11:14:56;;;;;;;7.95;7.15;;;34.80;1.00;;;;;;4994466;28;20767;-73
2023/07/09 11:17:22;;;;;;;9.07;7.00;;;34.70;1.00;;;;;;4978892;28;20046;-74
2023/07/09 11:19:54;;;;;;;10.05;6.78;;;34.60;1.00;;;;;;4978790;28;20642;-72
2023/07/09 11:22:21;;;;;;;9.90;8.88;;;34.30;1.00;;;;;;4977454;28;20124;-75
2023/07/09 11:24:53;;;;;;;11.45;9.18;;;33.80;1.00;;;;;;4978039;28;20133;-74
2023/07/09 11:27:20;;;;;;;;;;;33.50;1.00;;;;;;4979311;28;20081;-74
2023/07/09 11:29:48;;;;;;;10.63;9.50;;;33.00;7.90;;;;;;4976894;28;20424;-75
2023/07/09 11:32:22;;;;;;;11.85;9.48;;;32.80;14.40;;;;;;4976179;28;20042;-75
2023/07/09 11:34:48;;;;;;;12.68;10.65;;;32.90;10.10;;;;;;4975613;28;20052;-73
2023/07/09 11:37:15;;;;;;;10.68;9.68;;;32.80;19.60;;;;;;4975908;28;20134;-73
2023/07/09 11:39:42;;;;;;;12.32;10.48;;;33.00;19.80;;;;;;4977084;28;20050;-74
2023/07/09 11:42:25;;;;;;;12.30;10.73;;;33.20;10.30;;;;;;4961608;28;20050;-74
2023/07/09 11:45:01;;;;;;;12.23;9.65;;;33.10;27.00;;;;;;4978333;28;20429;-74
2023/07/09 11:47:47;;;;;;;11.50;9.73;;;33.10;41.20;;;;;;4992983;28;20728;-74
2023/07/09 11:50:38;;;;;;;10.18;9.15;;;33.10;27.90;;;;;;4978054;28;20054;-73
2023/07/09 11:53:36;;;;;;;11.88;10.10;;;32.90;27.00;;;;;;4977544;28;20046;-75
2023/07/09 11:56:02;;;;;;;11.20;10.18;;;32.80;54.00;;;;;;4960356;28;20046;-74
2023/07/09 11:58:28;;;;;;;11.65;10.65;;;32.70;28.70;;;;;;4978054;28;20153;-74
2023/07/09 12:00:56;;;;;;;11.60;10.32;;;32.80;25.90;;;;;;4977873;28;20053;-73
2023/07/09 12:03:29;;;;;;;11.20;9.80;;;32.70;36.50;;;;;;4979642;28;20050;-73
2023/07/09 12:06:20;;;;;;;13.48;9.93;;;32.50;50.60;;;;;;4977401;28;20098;-74
2023/07/09 12:08:47;;;;;;;9.27;8.23;;;32.50;69.50;;;;;;4976974;28;20204;-75
2023/07/09 12:11:36;;;;;;;8.13;7.45;;;32.40;29.00;;;;;;4976977;28;21015;-74
2023/07/09 12:14:10;;;;;;;8.52;7.82;;;32.60;3.00;;;;;;4975520;28;20042;-73
2023/07/09 12:16:45;;;;;;;12.48;8.52;;;32.80;1.00;;;;;;4974120;28;20053;-75
2023/07/09 12:19:12;;;;;;;9.00;7.93;;;32.90;9.00;;;;;;4977121;28;20521;-74
2023/07/09 12:21:42;;;;;;;8.85;7.80;;;32.90;22.80;;;;;;4977918;28;20089;-76
2023/07/09 12:24:31;;;;;;;8.98;7.18;;;33.10;1.00;;;;;;4977235;28;20042;-72
2023/07/09 12:27:02;;;;;;;11.23;8.52;;;33.20;1.00;;;;;;4977060;28;20537;-76
2023/07/09 12:29:34;;;;;;;9.00;8.10;;;33.10;1.00;;;;;;4976980;28;20082;-76
2023/07/09 12:32:10;;;;;;;8.18;7.30;;;33.60;1.00;;;;;;4989725;28;20662;-73
2023/07/09 12:34:35;;;;;;;7.55;6.72;;;34.00;1.00;;;;;;4974976;28;20034;-73
2023/07/09 12:37:01;;;;;;;8.18;7.38;;;34.20;1.00;;;;;;4973506;28;20556;-74
2023/07/09 12:39:29;;;;;;;8.35;7.55;;;33.90;1.00;;;;;;4976611;28;20046;-74
2023/07/09 12:41:59;;;;;;;8.70;7.20;;;34.00;1.00;;;;;;4977092;28;20050;-73
2023/07/09 12:44:25;;;;;;;7.45;6.80;;;34.20;1.00;;;;;;4972897;28;20055;-73
2023/07/09 12:46:53;;;;;;;7.10;6.40;;;34.20;1.00;;;;;;4974319;28;20096;-74
2023/07/09 12:49:26;;;;;;;9.48;7.20;;;34.00;1.00;;;;;;4973580;28;20273;-75
2023/07/09 12:52:01;;;;;;;9.05;8.15;;;33.40;1.00;;;;;;4973934;28;20042;-76
2023/07/09 12:54:31;;;;;;;9.02;8.18;;;33.40;6.10;;;;;;4972785;28;20379;-74
2023/07/09 12:56:59;;;;;;;8.73;7.82;;;33.30;1.00;;;;;;4972394;28;20528;-73
2023/07/09 12:59:36;;;;;;;8.35;7.05;;;32.80;9.60;;;;;;4973787;28;20054;-75
2023/07/09 13:02:18;;;;;;;7.97;7.00;;;32.60;3.60;;;;;;4989348;28;20490;-74
2023/07/09 13:05:06;;;;;;;7.78;6.28;;;32.70;1.00;;;;;;4988133;28;20461;-74